Delanco Township, New Jersey
Current Conditions -  °F | °C
As of 4:54 AM on Tuesday 21 Oct 2014 (Local Time) from KPNE Reporting Station
Overcast Overcast  
Wind Chill: 52°   Ceiling: 9000
Heat Index: 52°   Visibility: 10mi
Dew Point: 45°   Wind: 0mph
Humidity: 77%   Direction: NA
Pressure: 29.9"   Gusts: NA
Location:  40.0192°N, 74.9489°W
Report Text: KPNE 210854Z 00000KT 10SM FEW060 BKN090 OVC110 11/07 A2990 RMK AO2 SLP125 T01110072 56013 $
Loading
Personal Weather Stations






























Interactive Weather Map
Tropical Storm Tracking
New forecast layout! Learn more

10-Day Weather Forecast

Advertisements
Track Severe Weather on mobile